UNGO2: Muddy Boggy, Unger, OK

                                SHEF ID:       UNGO2     Muddy Boggy Creek near Unger, OK
STATION TYPE:
Regulating: Stage = 39.00, Flow = 17600

PRECIP STAGE STAGE(2) RIV-FLOW BAT-LOAD
in ft ft cfs volt
Ccp-Rev Ccp-Rev Ccp-Rev Ccp-Rev Ccp-Rev
(America/Chicago)
03/08 00:00 0.00 22.82 ---- 4480 12.73
03/08 01:00 0.00 22.97 ---- 4560 12.73
03/08 03:00 0.00 23.10 ---- 4620 12.73
03/08 04:00 0.00 23.20 ---- 4670 12.73
03/08 05:00 0.00 23.31 ---- 4730 12.65
03/08 06:00 0.00 23.38 ---- 4770 12.65
03/08 07:00 0.00 23.44 ---- 4800 12.65
03/08 08:00 0.00 23.48 ---- 4810 12.65
03/08 09:00 0.00 23.48 ---- 4810 12.65
03/08 10:00 0.00 23.49 ---- 4820 12.73
03/08 11:00 0.00 23.47 ---- 4810 13.21
03/08 12:00 0.00 23.44 ---- 4800 13.53
03/08 13:00 0.00 23.37 ---- 4760 13.37
03/08 14:00 0.00 23.30 ---- 4720 13.29
03/08 15:00 0.00 23.22 ---- 4680 13.21
03/08 16:00 0.00 23.10 ---- 4620 13.13
03/08 17:00 0.00 22.98 ---- 4560 13.05
03/08 18:00 0.00 22.84 ---- 4490 13.05
03/08 19:00 0.00 22.70 ---- 4420 13.05
03/08 20:00 0.00 22.56 ---- 4350 12.97
03/08 21:00 0.00 22.42 ---- 4280 12.97
03/08 22:00 0.00 22.27 ---- 4210 12.89
03/08 23:00 0.00 22.10 ---- 4130 12.89
Data processed at Mon 09Mar2026 04:47 GMT

NOTICE: If you are parsing this page

Please convert to using our Data API. Starting early 2026 we will be migrating to: https://water.usace.army.mil with modern pages rendered in JavaScript. When this migration completes you will no longer be able to scrape this page! CWMSDataAPI (CDA)

Timeseries IDs (TSIDs)

TSIDs used from left to right in the data table
UNGE.Precip-Inc.Total.1Hour.1Hour.Ccp-Rev
UNGE.Stage.Inst.1Hour.0.Ccp-Rev
UNGE.Stage-Alt.Inst.1Hour.0.Ccp-Rev
UNGE.Flow.Inst.1Hour.0.Ccp-Rev
UNGE.Volt-Battery Load.Inst.1Hour.0.Ccp-Rev

                            

All information presented herein is the property of the government of the United States of America and may be revised or deleted at any time without prior notice. Dissemination of this information without the expressed written consent of the Public Affairs Office, Tulsa District U.S. Army Corps of Engineers is strictly prohibited. These data are gathered electronically and, as presented, have NOT undergone any form of quality control. These data are NOT guaranteed to be valid or correct.